Time,TemperatureF,DewpointF,PressureIn,WindDirection,WindDirectionDegrees,WindSpeedMPH,WindSpeedGustMPH,Humidity,HourlyPrecipIn,Conditions,Clouds,dailyrainin,SoftwareType,DateUTC
2013-08-13 00:02:00,75.4,59.1,29.78,SSE,161,2.0,4.0,57,0.00,,,0.00,Wunderground v.1.15,2013-08-13 05:02:00,
2013-08-13 00:12:00,74.8,59.0,29.78,ESE,107,2.0,2.0,58,0.00,,,0.00,Wunderground v.1.15,2013-08-13 05:12:00,
2013-08-13 00:22:00,74.3,59.0,29.78,South,191,2.0,3.0,59,0.00,,,0.00,Wunderground v.1.15,2013-08-13 05:22:00,
2013-08-13 00:27:00,75.4,59.1,29.78,SSE,147,3.0,3.0,57,0.00,,,0.00,Wunderground v.1.15,2013-08-13 05:27:00,
2013-08-13 00:37:00,74.8,59.5,29.78,South,173,2.0,3.0,59,0.00,,,0.00,Wunderground v.1.15,2013-08-13 05:37:00,
2013-08-13 00:42:00,74.3,59.5,29.79,SSE,162,2.0,2.0,60,0.00,,,0.00,Wunderground v.1.15,2013-08-13 05:42:00,
2013-08-13 00:47:00,73.9,59.6,29.79,SE,145,3.0,3.0,61,0.00,,,0.00,Wunderground v.1.15,2013-08-13 05:47:00,
2013-08-13 00:57:00,74.3,59.5,29.78,SSE,150,2.0,2.0,60,0.00,,,0.00,Wunderground v.1.15,2013-08-13 05:57:00,
2013-08-13 01:02:00,74.1,59.8,29.79,SSE,168,2.0,2.0,61,0.00,,,0.00,Wunderground v.1.15,2013-08-13 06:02:00,
2013-08-13 01:12:00,73.3,59.5,29.78,SSE,160,1.0,1.0,62,0.00,,,0.00,Wunderground v.1.15,2013-08-13 06:12:00,
2013-08-13 01:22:00,73.9,60.1,29.78,SE,131,1.0,1.0,62,0.00,,,0.00,Wunderground v.1.15,2013-08-13 06:22:00,
2013-08-13 01:27:00,74.6,59.8,29.78,SE,129,1.0,3.0,60,0.00,,,0.00,Wunderground v.1.15,2013-08-13 06:27:00,
2013-08-13 01:37:00,73.6,59.8,29.78,SSE,154,2.0,3.0,62,0.00,,,0.00,Wunderground v.1.15,2013-08-13 06:37:00,
2013-08-13 01:42:00,73.1,59.8,29.78,SE,132,1.0,2.0,63,0.00,,,0.00,Wunderground v.1.15,2013-08-13 06:42:00,
2013-08-13 01:47:00,72.7,59.4,29.78,SSE,153,2.0,2.0,63,0.00,,,0.00,Wunderground v.1.15,2013-08-13 06:47:00,
2013-08-13 01:57:00,72.4,59.5,29.78,SSE,166,2.0,3.0,64,0.00,,,0.00,Wunderground v.1.15,2013-08-13 06:57:00,
2013-08-13 02:02:00,73.3,59.9,29.78,South,187,2.0,2.0,63,0.00,,,0.00,Wunderground v.1.15,2013-08-13 07:02:00,
2013-08-13 02:12:00,72.8,59.9,29.77,SSW,200,1.0,1.0,64,0.00,,,0.00,Wunderground v.1.15,2013-08-13 07:12:00,
2013-08-13 02:22:00,71.9,59.9,29.77,SSW,196,2.0,4.0,66,0.00,,,0.00,Wunderground v.1.15,2013-08-13 07:22:00,
2013-08-13 02:27:00,71.9,59.9,29.77,SSW,194,3.0,5.0,66,0.00,,,0.00,Wunderground v.1.15,2013-08-13 07:27:00,
2013-08-13 02:32:00,72.5,60.1,29.77,South,190,4.0,4.0,65,0.00,,,0.00,Wunderground v.1.15,2013-08-13 07:32:00,
2013-08-13 02:42:00,71.9,59.9,29.77,South,190,5.0,5.0,66,0.00,,,0.00,Wunderground v.1.15,2013-08-13 07:42:00,
2013-08-13 02:47:00,71.7,59.7,29.77,South,191,3.0,5.0,66,0.00,,,0.00,Wunderground v.1.15,2013-08-13 07:47:00,
2013-08-13 02:57:00,71.4,59.9,29.77,SSW,198,2.0,3.0,67,0.00,,,0.00,Wunderground v.1.15,2013-08-13 07:57:00,
2013-08-13 03:02:00,72.3,60.3,29.77,SSW,208,2.0,3.0,66,0.00,,,0.00,Wunderground v.1.15,2013-08-13 08:02:00,
2013-08-13 03:12:00,72.1,60.1,29.77,South,183,2.0,3.0,66,0.00,,,0.00,Wunderground v.1.15,2013-08-13 08:12:00,
2013-08-13 03:17:00,72.0,60.0,29.77,SSW,197,3.0,5.0,66,0.00,,,0.00,Wunderground v.1.15,2013-08-13 08:17:00,
2013-08-13 03:27:00,72.2,60.2,29.77,South,189,4.0,6.0,66,0.00,,,0.00,Wunderground v.1.15,2013-08-13 08:27:00,
2013-08-13 03:37:00,72.7,60.3,29.77,SSW,213,3.0,4.0,65,0.00,,,0.00,Wunderground v.1.15,2013-08-13 08:37:00,
2013-08-13 03:42:00,72.1,60.1,29.77,SW,229,2.0,2.0,66,0.00,,,0.00,Wunderground v.1.15,2013-08-13 08:42:00,
2013-08-13 03:47:00,71.6,59.6,29.77,SW,228,1.0,2.0,66,0.00,,,0.00,Wunderground v.1.15,2013-08-13 08:47:00,
2013-08-13 03:52:00,71.3,59.8,29.77,SSW,209,1.0,1.0,67,0.00,,,0.00,Wunderground v.1.15,2013-08-13 08:52:00,
2013-08-13 04:02:00,71.5,60.0,29.77,SW,227,1.0,2.0,67,0.00,,,0.00,Wunderground v.1.15,2013-08-13 09:02:00,
2013-08-13 04:12:00,71.9,59.5,29.77,SSW,194,3.0,6.0,65,0.00,,,0.00,Wunderground v.1.15,2013-08-13 09:12:00,
2013-08-13 04:17:00,72.1,59.7,29.77,NW,326,3.0,6.0,65,0.00,,,0.00,Wunderground v.1.15,2013-08-13 09:17:00,
2013-08-13 04:27:00,70.6,59.5,29.77,NNE,17,2.0,3.0,68,0.00,,,0.00,Wunderground v.1.15,2013-08-13 09:27:00,
2013-08-13 04:32:00,71.3,59.8,29.77,NNE,17,2.0,2.0,67,0.00,,,0.00,Wunderground v.1.15,2013-08-13 09:32:00,
2013-08-13 04:37:00,71.6,60.1,29.77,NNE,17,1.0,2.0,67,0.00,,,0.00,Wunderground v.1.15,2013-08-13 09:37:00,
2013-08-13 04:47:00,71.4,59.9,29.77,SE,140,0.0,1.0,67,0.00,,,0.00,Wunderground v.1.15,2013-08-13 09:47:00,
2013-08-13 04:52:00,70.7,59.6,29.77,SE,135,1.0,1.0,68,0.00,,,0.00,Wunderground v.1.15,2013-08-13 09:52:00,
2013-08-13 05:02:00,70.0,59.4,29.77,SE,136,0.0,0.0,69,0.00,,,0.00,Wunderground v.1.15,2013-08-13 10:02:00,
2013-08-13 05:12:00,69.5,59.7,29.77,SE,134,0.0,0.0,71,0.00,,,0.00,Wunderground v.1.15,2013-08-13 10:12:00,
2013-08-13 05:22:00,70.2,60.0,29.77,SSE,156,0.0,0.0,70,0.00,,,0.00,Wunderground v.1.15,2013-08-13 10:22:00,
2013-08-13 05:27:00,69.9,59.7,29.77,SSE,157,0.0,0.0,70,0.00,,,0.00,Wunderground v.1.15,2013-08-13 10:27:00,
2013-08-13 05:37:00,69.5,59.7,29.77,SSW,197,2.0,3.0,71,0.00,,,0.00,Wunderground v.1.15,2013-08-13 10:37:00,
2013-08-13 05:42:00,69.4,59.6,29.77,SSW,193,3.0,3.0,71,0.00,,,0.00,Wunderground v.1.15,2013-08-13 10:42:00,
2013-08-13 05:47:00,69.4,59.6,29.77,SSW,193,4.0,4.0,71,0.00,,,0.00,Wunderground v.1.15,2013-08-13 10:47:00,
2013-08-13 05:52:00,69.3,59.5,29.77,SSW,192,3.0,3.0,71,0.00,,,0.00,Wunderground v.1.15,2013-08-13 10:52:00,
2013-08-13 06:02:00,69.6,59.4,29.77,SSW,198,1.0,1.0,70,0.00,,,0.00,Wunderground v.1.15,2013-08-13 11:02:00,
2013-08-13 06:12:00,69.7,59.1,29.77,SW,225,2.0,2.0,69,0.00,,,0.00,Wunderground v.1.15,2013-08-13 11:12:00,
2013-08-13 06:17:00,69.4,59.2,29.77,SW,236,2.0,3.0,70,0.00,,,0.00,Wunderground v.1.15,2013-08-13 11:17:00,
2013-08-13 06:27:00,68.8,59.0,29.77,South,179,1.0,2.0,71,0.00,,,0.00,Wunderground v.1.15,2013-08-13 11:27:00,
2013-08-13 06:32:00,68.5,58.7,29.77,SSW,192,2.0,2.0,71,0.00,,,0.00,Wunderground v.1.15,2013-08-13 11:32:00,
2013-08-13 06:37:00,68.2,58.8,29.77,SW,217,2.0,2.0,72,0.00,,,0.00,Wunderground v.1.15,2013-08-13 11:37:00,
2013-08-13 06:47:00,67.8,58.8,29.77,SW,217,2.0,3.0,73,0.00,,,0.00,Wunderground v.1.15,2013-08-13 11:47:00,
2013-08-13 06:52:00,68.3,58.9,29.77,SW,217,2.0,2.0,72,0.00,,,0.00,Wunderground v.1.15,2013-08-13 11:52:00,
2013-08-13 07:02:00,68.2,58.4,29.77,SW,217,2.0,2.0,71,0.00,,,0.00,Wunderground v.1.15,2013-08-13 12:02:00,
2013-08-13 07:12:00,67.5,58.5,29.77,SW,217,1.0,1.0,73,0.00,,,0.00,Wunderground v.1.15,2013-08-13 12:12:00,
2013-08-13 07:17:00,67.3,58.3,29.77,SW,217,0.0,1.0,73,0.00,,,0.00,Wunderground v.1.15,2013-08-13 12:17:00,
2013-08-13 07:27:00,67.2,58.6,29.77,SW,217,1.0,1.0,74,0.00,,,0.00,Wunderground v.1.15,2013-08-13 12:27:00,
2013-08-13 07:32:00,67.1,58.2,29.78,SW,217,1.0,1.0,73,0.00,,,0.00,Wunderground v.1.15,2013-08-13 12:32:00,
2013-08-13 07:42:00,67.8,58.4,29.78,SW,217,1.0,1.0,72,0.00,,,0.00,Wunderground v.1.15,2013-08-13 12:42:00,
2013-08-13 07:47:00,67.7,58.3,29.78,SW,217,1.0,1.0,72,0.00,,,0.00,Wunderground v.1.15,2013-08-13 12:47:00,
2013-08-13 07:52:00,67.4,58.4,29.79,ESE,105,1.0,1.0,73,0.00,,,0.00,Wunderground v.1.15,2013-08-13 12:52:00,
2013-08-13 08:02:00,67.1,58.5,29.79,ESE,105,0.0,0.0,74,0.00,,,0.00,Wunderground v.1.15,2013-08-13 13:02:00,
2013-08-13 08:12:00,68.8,59.0,29.79,South,184,1.0,2.0,71,0.00,,,0.00,Wunderground v.1.15,2013-08-13 13:12:00,
2013-08-13 08:17:00,69.6,59.0,29.79,South,187,2.0,2.0,69,0.00,,,0.00,Wunderground v.1.15,2013-08-13 13:17:00,
2013-08-13 08:22:00,70.0,59.0,29.79,South,187,2.0,2.0,68,0.00,,,0.00,Wunderground v.1.15,2013-08-13 13:22:00,
2013-08-13 08:32:00,70.9,59.4,29.79,SSW,193,1.0,2.0,67,0.00,,,0.00,Wunderground v.1.15,2013-08-13 13:32:00,
2013-08-13 08:37:00,72.1,59.7,29.79,SSW,194,1.0,2.0,65,0.00,,,0.00,Wunderground v.1.15,2013-08-13 13:37:00,
2013-08-13 08:47:00,72.4,59.5,29.80,SSW,194,0.0,1.0,64,0.00,,,0.00,Wunderground v.1.15,2013-08-13 13:47:00,
2013-08-13 08:52:00,72.8,59.9,29.80,SSW,194,0.0,0.0,64,0.00,,,0.00,Wunderground v.1.15,2013-08-13 13:52:00,
2013-08-13 09:02:00,74.1,59.8,29.80,SSW,194,1.0,1.0,61,0.00,,,0.00,Wunderground v.1.15,2013-08-13 14:02:00,
2013-08-13 09:07:00,74.1,59.8,29.80,SSW,194,1.0,1.0,61,0.00,,,0.00,Wunderground v.1.15,2013-08-13 14:07:00,
2013-08-13 09:17:00,75.4,59.1,29.80,SSE,159,1.0,1.0,57,0.00,,,0.00,Wunderground v.1.15,2013-08-13 14:17:00,
2013-08-13 09:22:00,75.4,59.1,29.80,SSE,152,1.0,1.0,57,0.00,,,0.00,Wunderground v.1.15,2013-08-13 14:22:00,
2013-08-13 09:32:00,76.8,59.4,29.80,SE,129,0.0,2.0,55,0.00,,,0.00,Wunderground v.1.15,2013-08-13 14:32:00,
2013-08-13 09:37:00,76.6,59.2,29.80,SSW,205,1.0,5.0,55,0.00,,,0.00,Wunderground v.1.15,2013-08-13 14:37:00,
2013-08-13 09:47:00,77.2,59.3,29.80,NNE,16,2.0,3.0,54,0.00,,,0.00,Wunderground v.1.15,2013-08-13 14:47:00,
2013-08-13 09:52:00,77.2,59.3,29.80,South,178,3.0,3.0,54,0.00,,,0.00,Wunderground v.1.15,2013-08-13 14:52:00,
2013-08-13 09:57:00,77.5,59.5,29.80,SSW,213,3.0,3.0,54,0.00,,,0.00,Wunderground v.1.15,2013-08-13 14:57:00,
2013-08-13 10:02:00,78.5,59.9,29.80,SSW,203,4.0,8.0,53,0.00,,,0.00,Wunderground v.1.15,2013-08-13 15:02:00,
2013-08-13 10:12:00,78.4,59.3,29.80,SSW,201,6.0,6.0,52,0.00,,,0.00,Wunderground v.1.15,2013-08-13 15:12:00,
2013-08-13 10:17:00,78.8,59.7,29.80,SSW,201,6.0,6.0,52,0.00,,,0.00,Wunderground v.1.15,2013-08-13 15:17:00,
2013-08-13 10:22:00,78.9,59.2,29.80,SSW,204,5.0,7.0,51,0.00,,,0.00,Wunderground v.1.15,2013-08-13 15:22:00,
2013-08-13 10:32:00,80.6,59.7,29.80,South,186,5.0,5.0,49,0.00,,,0.00,Wunderground v.1.15,2013-08-13 15:32:00,
2013-08-13 10:37:00,80.4,59.5,29.80,SSW,209,4.0,5.0,49,0.00,,,0.00,Wunderground v.1.15,2013-08-13 15:37:00,
2013-08-13 10:42:00,80.2,59.3,29.80,WSW,241,3.0,3.0,49,0.00,,,0.00,Wunderground v.1.15,2013-08-13 15:42:00,
2013-08-13 10:52:00,80.2,59.3,29.80,SSW,200,4.0,4.0,49,0.00,,,0.00,Wunderground v.1.15,2013-08-13 15:52:00,
2013-08-13 10:57:00,80.7,59.2,29.80,NW,319,3.0,4.0,48,0.00,,,0.00,Wunderground v.1.15,2013-08-13 15:57:00,
2013-08-13 11:02:00,82.2,59.4,29.80,WNW,283,2.0,2.0,46,0.00,,,0.00,Wunderground v.1.15,2013-08-13 16:02:00,
2013-08-13 11:12:00,82.5,59.0,29.80,SSW,195,3.0,3.0,45,0.00,,,0.00,Wunderground v.1.15,2013-08-13 16:12:00,
2013-08-13 11:17:00,84.0,59.1,29.80,East,94,3.0,3.0,43,0.00,,,0.00,Wunderground v.1.15,2013-08-13 16:17:00,
2013-08-13 11:22:00,83.8,58.9,29.80,NW,311,3.0,3.0,43,0.00,,,0.00,Wunderground v.1.15,2013-08-13 16:22:00,
2013-08-13 11:32:00,83.8,59.6,29.80,SE,128,3.0,6.0,44,0.00,,,0.00,Wunderground v.1.15,2013-08-13 16:32:00,
2013-08-13 11:42:00,85.3,58.9,29.80,South,181,2.0,2.0,41,0.00,,,0.00,Wunderground v.1.15,2013-08-13 16:42:00,
2013-08-13 11:47:00,85.2,58.8,29.80,NNW,329,2.0,2.0,41,0.00,,,0.00,Wunderground v.1.15,2013-08-13 16:47:00,
2013-08-13 11:52:00,85.7,58.6,29.80,SW,215,3.0,3.0,40,0.00,,,0.00,Wunderground v.1.15,2013-08-13 16:52:00,
2013-08-13 11:57:00,85.2,57.4,29.80,WSW,255,3.0,3.0,39,0.00,,,0.00,Wunderground v.1.15,2013-08-13 16:57:00,
2013-08-13 12:07:00,86.5,57.9,29.80,North,360,2.0,2.0,38,0.00,,,0.00,Wunderground v.1.15,2013-08-13 17:07:00,
2013-08-13 12:17:00,86.4,57.8,29.80,NNE,26,3.0,3.0,38,0.00,,,0.00,Wunderground v.1.15,2013-08-13 17:17:00,
2013-08-13 12:27:00,86.7,58.1,29.80,West,277,2.0,3.0,38,0.00,,,0.00,Wunderground v.1.15,2013-08-13 17:27:00,
2013-08-13 12:32:00,86.8,58.9,29.80,NE,46,2.0,2.0,39,0.00,,,0.00,Wunderground v.1.15,2013-08-13 17:32:00,
2013-08-13 12:37:00,87.4,59.4,29.80,ENE,75,2.0,4.0,39,0.00,,,0.00,Wunderground v.1.15,2013-08-13 17:37:00,
2013-08-13 12:47:00,89.2,58.8,29.79,NE,54,2.0,3.0,36,0.00,,,0.00,Wunderground v.1.15,2013-08-13 17:47:00,
2013-08-13 12:52:00,89.7,57.6,29.79,NNE,28,2.0,2.0,34,0.00,,,0.00,Wunderground v.1.15,2013-08-13 17:52:00,
2013-08-13 13:02:00,91.3,58.2,29.79,East,82,2.0,3.0,33,0.00,,,0.00,Wunderground v.1.15,2013-08-13 18:02:00,
2013-08-13 13:12:00,94.6,57.4,29.78,SSW,193,3.0,4.0,29,0.00,,,0.00,Wunderground v.1.15,2013-08-13 18:12:00,
2013-08-13 13:17:00,94.3,57.2,29.78,North,352,3.0,4.0,29,0.00,,,0.00,Wunderground v.1.15,2013-08-13 18:17:00,
2013-08-13 13:27:00,94.5,58.3,29.78,NNE,19,4.0,4.0,30,0.00,,,0.00,Wunderground v.1.15,2013-08-13 18:27:00,
2013-08-13 13:32:00,94.7,58.4,29.78,NE,38,4.0,5.0,30,0.00,,,0.00,Wunderground v.1.15,2013-08-13 18:32:00,
2013-08-13 13:42:00,94.4,58.2,29.77,East,94,5.0,5.0,30,0.00,,,0.00,Wunderground v.1.15,2013-08-13 18:42:00,
2013-08-13 13:47:00,96.0,56.6,29.77,North,352,3.0,8.0,27,0.00,,,0.00,Wunderground v.1.15,2013-08-13 18:47:00,
2013-08-13 13:57:00,92.8,56.8,29.77,NNE,32,4.0,4.0,30,0.00,,,0.00,Wunderground v.1.15,2013-08-13 18:57:00,
2013-08-13 14:02:00,94.0,56.9,29.76,NE,40,2.0,4.0,29,0.00,,,0.00,Wunderground v.1.15,2013-08-13 19:02:00,
2013-08-13 14:12:00,93.9,57.8,29.76,ESE,114,4.0,4.0,30,0.00,,,0.00,Wunderground v.1.15,2013-08-13 19:12:00,
2013-08-13 14:17:00,95.3,57.0,29.76,East,88,3.0,4.0,28,0.00,,,0.00,Wunderground v.1.15,2013-08-13 19:17:00,
2013-08-13 14:27:00,95.1,56.9,29.75,East,94,2.0,4.0,28,0.00,,,0.00,Wunderground v.1.15,2013-08-13 19:27:00,
2013-08-13 14:32:00,96.2,56.8,29.75,NE,39,3.0,8.0,27,0.00,,,0.00,Wunderground v.1.15,2013-08-13 19:32:00,
2013-08-13 14:42:00,97.4,54.6,29.75,ENE,77,3.0,3.0,24,0.00,,,0.00,Wunderground v.1.15,2013-08-13 19:42:00,
2013-08-13 14:47:00,96.3,56.9,29.75,NNE,15,2.0,3.0,27,0.00,,,0.00,Wunderground v.1.15,2013-08-13 19:47:00,
2013-08-13 14:57:00,97.2,56.6,29.75,NE,38,4.0,4.0,26,0.00,,,0.00,Wunderground v.1.15,2013-08-13 19:57:00,
2013-08-13 15:02:00,96.2,55.8,29.74,ENE,61,3.0,3.0,26,0.00,,,0.00,Wunderground v.1.15,2013-08-13 20:02:00,
2013-08-13 15:12:00,99.4,55.1,29.74,SSW,213,3.0,3.0,23,0.00,,,0.00,Wunderground v.1.15,2013-08-13 20:12:00,
2013-08-13 15:22:00,100.0,56.7,29.74,East,81,5.0,5.0,24,0.00,,,0.00,Wunderground v.1.15,2013-08-13 20:22:00,
2013-08-13 15:27:00,101.8,55.8,29.73,East,88,4.0,5.0,22,0.00,,,0.00,Wunderground v.1.15,2013-08-13 20:27:00,
2013-08-13 15:32:00,102.5,57.6,29.73,NE,43,3.0,8.0,23,0.00,,,0.00,Wunderground v.1.15,2013-08-13 20:32:00,
2013-08-13 15:42:00,103.5,57.2,29.73,East,82,4.0,4.0,22,0.00,,,0.00,Wunderground v.1.15,2013-08-13 20:42:00,
2013-08-13 15:52:00,101.5,54.3,29.73,ENE,71,4.0,4.0,21,0.00,,,0.00,Wunderground v.1.15,2013-08-13 20:52:00,
2013-08-13 16:02:00,100.9,56.3,29.72,NE,54,4.0,4.0,23,0.00,,,0.00,Wunderground v.1.15,2013-08-13 21:02:00,
2013-08-13 16:12:00,102.1,54.8,29.71,North,9,3.0,9.0,21,0.00,,,0.00,Wunderground v.1.15,2013-08-13 21:12:00,
2013-08-13 16:17:00,100.6,53.6,29.72,NNE,33,5.0,9.0,21,0.00,,,0.00,Wunderground v.1.15,2013-08-13 21:17:00,
2013-08-13 16:27:00,98.3,54.1,29.71,East,88,2.0,5.0,23,0.00,,,0.00,Wunderground v.1.15,2013-08-13 21:27:00,
2013-08-13 16:37:00,98.7,53.3,29.71,NE,47,5.0,5.0,22,0.00,,,0.00,Wunderground v.1.15,2013-08-13 21:37:00,
2013-08-13 16:47:00,101.0,55.2,29.71,NE,42,5.0,7.0,22,0.00,,,0.00,Wunderground v.1.15,2013-08-13 21:47:00,
2013-08-13 16:52:00,103.4,54.5,29.70,NE,43,5.0,6.0,20,0.00,,,0.00,Wunderground v.1.15,2013-08-13 21:52:00,
2013-08-13 17:02:00,102.7,52.5,29.70,East,95,4.0,5.0,19,0.00,,,0.00,Wunderground v.1.15,2013-08-13 22:02:00,
2013-08-13 17:12:00,102.2,53.5,29.70,NE,44,3.0,3.0,20,0.00,,,0.00,Wunderground v.1.15,2013-08-13 22:12:00,
2013-08-13 17:22:00,101.4,52.9,29.69,East,89,5.0,5.0,20,0.00,,,0.00,Wunderground v.1.15,2013-08-13 22:22:00,
2013-08-13 17:27:00,100.8,53.7,29.69,ENE,59,5.0,6.0,21,0.00,,,0.00,Wunderground v.1.15,2013-08-13 22:27:00,
2013-08-13 17:32:00,101.4,54.2,29.69,NE,55,5.0,5.0,21,0.00,,,0.00,Wunderground v.1.15,2013-08-13 22:32:00,
2013-08-13 17:42:00,102.3,53.6,29.69,NE,50,4.0,4.0,20,0.00,,,0.00,Wunderground v.1.15,2013-08-13 22:42:00,
2013-08-13 17:47:00,102.5,53.8,29.69,ENE,69,4.0,5.0,20,0.00,,,0.00,Wunderground v.1.15,2013-08-13 22:47:00,
2013-08-13 17:57:00,105.2,51.5,29.69,ESE,117,4.0,4.0,17,0.00,,,0.00,Wunderground v.1.15,2013-08-13 22:57:00,
2013-08-13 18:02:00,105.1,53.0,29.68,ENE,76,5.0,6.0,18,0.00,,,0.00,Wunderground v.1.15,2013-08-13 23:02:00,
2013-08-13 18:12:00,104.6,51.1,29.68,ENE,69,4.0,4.0,17,0.00,,,0.00,Wunderground v.1.15,2013-08-13 23:12:00,
2013-08-13 18:22:00,101.6,51.6,29.68,East,88,4.0,4.0,19,0.00,,,0.00,Wunderground v.1.15,2013-08-13 23:22:00,
2013-08-13 18:27:00,102.5,52.4,29.68,East,86,3.0,6.0,19,0.00,,,0.00,Wunderground v.1.15,2013-08-13 23:27:00,
2013-08-13 18:37:00,103.9,52.0,29.68,NE,34,3.0,3.0,18,0.00,,,0.00,Wunderground v.1.15,2013-08-13 23:37:00,
2013-08-13 18:42:00,103.7,51.9,29.68,NE,45,4.0,4.0,18,0.00,,,0.00,Wunderground v.1.15,2013-08-13 23:42:00,
2013-08-13 18:47:00,104.3,50.8,29.68,NNE,26,5.0,5.0,17,0.00,,,0.00,Wunderground v.1.15,2013-08-13 23:47:00,
2013-08-13 18:57:00,103.1,51.4,29.68,ENE,60,3.0,3.0,18,0.00,,,0.00,Wunderground v.1.15,2013-08-13 23:57:00,
2013-08-13 19:02:00,103.7,51.9,29.68,NNE,22,4.0,4.0,18,0.00,,,0.00,Wunderground v.1.15,2013-08-14 00:02:00,
2013-08-13 19:12:00,102.4,52.3,29.67,ENE,59,3.0,4.0,19,0.00,,,0.00,Wunderground v.1.15,2013-08-14 00:12:00,
2013-08-13 19:22:00,104.0,52.1,29.67,ENE,73,5.0,5.0,18,0.00,,,0.00,Wunderground v.1.15,2013-08-14 00:22:00,
2013-08-13 19:27:00,102.9,51.2,29.67,ENE,78,4.0,5.0,18,0.00,,,0.00,Wunderground v.1.15,2013-08-14 00:27:00,
2013-08-13 19:37:00,102.8,51.2,29.67,ENE,73,3.0,4.0,18,0.00,,,0.00,Wunderground v.1.15,2013-08-14 00:37:00,
2013-08-13 19:42:00,101.8,51.8,29.67,ENE,77,3.0,4.0,19,0.00,,,0.00,Wunderground v.1.15,2013-08-14 00:42:00,
2013-08-13 19:52:00,100.1,51.8,29.67,NE,44,4.0,4.0,20,0.00,,,0.00,Wunderground v.1.15,2013-08-14 00:52:00,
2013-08-13 19:57:00,99.6,51.4,29.67,East,82,4.0,4.0,20,0.00,,,0.00,Wunderground v.1.15,2013-08-14 00:57:00,
2013-08-13 20:02:00,98.7,52.0,29.67,East,84,4.0,4.0,21,0.00,,,0.00,Wunderground v.1.15,2013-08-14 01:02:00,
2013-08-13 20:12:00,98.5,51.8,29.67,East,82,3.0,3.0,21,0.00,,,0.00,Wunderground v.1.15,2013-08-14 01:12:00,
2013-08-13 20:17:00,97.9,51.3,29.68,ENE,59,3.0,3.0,21,0.00,,,0.00,Wunderground v.1.15,2013-08-14 01:17:00,
2013-08-13 20:22:00,96.8,51.7,29.68,NE,49,3.0,4.0,22,0.00,,,0.00,Wunderground v.1.15,2013-08-14 01:22:00,
2013-08-13 20:32:00,95.6,51.9,29.68,ENE,63,3.0,4.0,23,0.00,,,0.00,Wunderground v.1.15,2013-08-14 01:32:00,
2013-08-13 20:37:00,94.6,52.2,29.68,NE,53,3.0,4.0,24,0.00,,,0.00,Wunderground v.1.15,2013-08-14 01:37:00,
2013-08-13 20:42:00,94.4,53.2,29.69,East,79,4.0,6.0,25,0.00,,,0.00,Wunderground v.1.15,2013-08-14 01:42:00,
2013-08-13 20:52:00,91.9,56.0,29.69,ENE,71,5.0,5.0,30,0.00,,,0.00,Wunderground v.1.15,2013-08-14 01:52:00,
2013-08-13 20:57:00,91.7,56.8,29.69,NE,55,4.0,5.0,31,0.00,,,0.00,Wunderground v.1.15,2013-08-14 01:57:00,
2013-08-13 21:02:00,91.5,57.5,29.69,ENE,63,4.0,4.0,32,0.00,,,0.00,Wunderground v.1.15,2013-08-14 02:02:00,
2013-08-13 21:12:00,90.8,57.7,29.69,East,98,4.0,4.0,33,0.00,,,0.00,Wunderground v.1.15,2013-08-14 02:12:00,
2013-08-13 21:17:00,89.9,57.8,29.69,East,90,3.0,4.0,34,0.00,,,0.00,Wunderground v.1.15,2013-08-14 02:17:00,
2013-08-13 21:22:00,88.9,57.7,29.70,East,91,2.0,2.0,35,0.00,,,0.00,Wunderground v.1.15,2013-08-14 02:22:00,
2013-08-13 21:32:00,87.5,57.3,29.70,SE,125,2.0,2.0,36,0.00,,,0.00,Wunderground v.1.15,2013-08-14 02:32:00,
2013-08-13 21:37:00,87.0,56.8,29.71,ESE,105,2.0,3.0,36,0.00,,,0.00,Wunderground v.1.15,2013-08-14 02:37:00,
2013-08-13 21:47:00,86.0,57.4,29.70,ESE,105,3.0,5.0,38,0.00,,,0.00,Wunderground v.1.15,2013-08-14 02:47:00,
2013-08-13 21:52:00,84.5,56.8,29.70,SE,142,3.0,3.0,39,0.00,,,0.00,Wunderground v.1.15,2013-08-14 02:52:00,
2013-08-13 21:57:00,83.6,57.4,29.71,ESE,112,3.0,3.0,41,0.00,,,0.00,Wunderground v.1.15,2013-08-14 02:57:00,
2013-08-13 22:02:00,83.6,57.4,29.71,SW,229,3.0,3.0,41,0.00,,,0.00,Wunderground v.1.15,2013-08-14 03:02:00,
2013-08-13 22:12:00,82.7,57.3,29.70,NNW,334,3.0,3.0,42,0.00,,,0.00,Wunderground v.1.15,2013-08-14 03:12:00,
2013-08-13 22:22:00,81.8,57.1,29.71,SE,132,3.0,3.0,43,0.00,,,0.00,Wunderground v.1.15,2013-08-14 03:22:00,
2013-08-13 22:27:00,82.7,57.3,29.71,SSE,149,2.0,3.0,42,0.00,,,0.00,Wunderground v.1.15,2013-08-14 03:27:00,
2013-08-13 22:37:00,82.3,57.6,29.71,East,91,3.0,4.0,43,0.00,,,0.00,Wunderground v.1.15,2013-08-14 03:37:00,
2013-08-13 22:42:00,81.5,57.5,29.71,East,88,3.0,3.0,44,0.00,,,0.00,Wunderground v.1.15,2013-08-14 03:42:00,
2013-08-13 22:52:00,81.6,57.6,29.72,ESE,121,3.0,3.0,44,0.00,,,0.00,Wunderground v.1.15,2013-08-14 03:52:00,
2013-08-13 23:02:00,81.1,57.7,29.73,SE,146,2.0,3.0,45,0.00,,,0.00,Wunderground v.1.15,2013-08-14 04:02:00,
2013-08-13 23:07:00,80.6,57.3,29.73,SE,139,2.0,3.0,45,0.00,,,0.00,Wunderground v.1.15,2013-08-14 04:07:00,
2013-08-13 23:12:00,80.5,57.8,29.72,ESE,121,2.0,2.0,46,0.00,,,0.00,Wunderground v.1.15,2013-08-14 04:12:00,
2013-08-13 23:22:00,81.1,57.7,29.73,ESE,109,3.0,4.0,45,0.00,,,0.00,Wunderground v.1.15,2013-08-14 04:22:00,
2013-08-13 23:27:00,80.7,58.0,29.73,SSE,152,3.0,4.0,46,0.00,,,0.00,Wunderground v.1.15,2013-08-14 04:27:00,
2013-08-13 23:37:00,79.6,58.2,29.73,ESE,117,3.0,4.0,48,0.00,,,0.00,Wunderground v.1.15,2013-08-14 04:37:00,
2013-08-13 23:42:00,79.3,58.5,29.73,SSE,152,3.0,3.0,49,0.00,,,0.00,Wunderground v.1.15,2013-08-14 04:42:00,
2013-08-13 23:47:00,80.0,58.5,29.73,SE,132,3.0,4.0,48,0.00,,,0.00,Wunderground v.1.15,2013-08-14 04:47:00,
2013-08-13 23:57:00,79.4,58.6,29.73,ESE,119,3.0,3.0,49,0.00,,,0.00,Wunderground v.1.15,2013-08-14 04:57:00,